createdAt,value
2022-11-30T00:03:00.495Z,13.77
2022-11-30T00:07:04.042Z,13.07
2022-11-30T00:11:13.481Z,14.18
2022-11-30T00:15:18.822Z,13.23
2022-11-30T00:19:22.265Z,13.45
2022-11-30T00:23:25.630Z,12.30
2022-11-30T00:27:29.709Z,13.93
2022-11-30T00:31:34.321Z,13.90
2022-11-30T00:35:37.829Z,15.60
2022-11-30T00:39:41.635Z,14.63
2022-11-30T00:43:45.148Z,14.23
2022-11-30T00:47:50.068Z,13.77
2022-11-30T00:51:53.548Z,14.57
2022-11-30T00:55:56.848Z,16.35
2022-11-30T01:00:00.309Z,13.27
2022-11-30T01:04:05.060Z,12.35
2022-11-30T01:08:11.580Z,15.32
2022-11-30T01:12:15.035Z,12.63
2022-11-30T01:16:21.225Z,13.98
2022-11-30T01:20:25.911Z,12.80
2022-11-30T01:24:29.460Z,13.27
2022-11-30T01:28:32.992Z,13.90
2022-11-30T01:32:36.155Z,13.18
2022-11-30T01:36:41.138Z,13.82
2022-11-30T01:40:51.782Z,14.25
2022-11-30T01:44:57.467Z,13.38
2022-11-30T01:49:16.691Z,13.68
2022-11-30T01:53:21.657Z,12.57
2022-11-30T01:57:31.723Z,12.68
2022-11-30T02:01:35.155Z,14.35
2022-11-30T02:05:41.290Z,13.82
2022-11-30T02:09:47.128Z,16.42
2022-11-30T02:14:04.325Z,13.50
2022-11-30T02:18:14.459Z,14.73
2022-11-30T02:22:34.669Z,14.07
2022-11-30T02:27:06.682Z,14.48
2022-11-30T02:31:18.526Z,13.83
2022-11-30T02:35:26.813Z,15.13
2022-11-30T02:39:30.411Z,12.43
2022-11-30T02:43:34.420Z,15.10
2022-11-30T02:47:46.928Z,14.98
2022-11-30T02:51:52.209Z,13.88
2022-11-30T02:55:56.630Z,14.63
2022-11-30T03:00:02.298Z,14.70
2022-11-30T03:04:06.882Z,14.18
2022-11-30T03:08:10.382Z,13.23
2022-11-30T03:12:13.495Z,16.70
2022-11-30T03:16:17.198Z,14.85
2022-11-30T03:20:22.149Z,15.55
2022-11-30T03:24:25.149Z,14.55
2022-11-30T03:28:28.761Z,13.63
2022-11-30T03:32:32.617Z,13.10
2022-11-30T03:36:37.623Z,15.85
2022-11-30T03:40:41.187Z,14.80
2022-11-30T03:44:45.116Z,14.02
2022-11-30T03:48:48.962Z,13.95
2022-11-30T03:52:53.344Z,12.55
2022-11-30T03:56:56.852Z,15.40
2022-11-30T04:01:02.587Z,15.02
2022-11-30T04:05:06.803Z,14.35
2022-11-30T04:09:12.241Z,13.65
2022-11-30T04:13:15.379Z,13.38
2022-11-30T04:17:18.917Z,15.73
2022-11-30T04:21:22.483Z,13.02
2022-11-30T04:25:27.814Z,15.10
2022-11-30T04:29:31.012Z,13.55
2022-11-30T04:33:34.322Z,15.52
2022-11-30T04:37:37.881Z,15.98
2022-11-30T04:41:43.284Z,16.27
2022-11-30T04:45:47.873Z,15.73
2022-11-30T04:49:51.018Z,15.85
2022-11-30T04:53:54.527Z,13.77
2022-11-30T04:57:59.213Z,15.20
2022-11-30T05:02:03.235Z,15.30
2022-11-30T05:06:07.196Z,13.52
2022-11-30T05:10:11.898Z,13.68
2022-11-30T05:14:16.673Z,11.77
2022-11-30T05:22:44.862Z,13.95
2022-11-30T05:26:48.499Z,16.85
2022-11-30T05:30:53.673Z,14.65
2022-11-30T05:34:56.992Z,15.25
2022-11-30T05:39:00.302Z,14.48
2022-11-30T05:43:05.357Z,14.15
2022-11-30T05:47:10.106Z,15.23
2022-11-30T05:51:15.969Z,14.02
2022-11-30T05:55:19.235Z,14.32
2022-11-30T05:59:22.887Z,17.00
2022-11-30T06:03:29.906Z,14.63
2022-11-30T06:07:33.156Z,15.13
2022-11-30T06:11:36.341Z,16.50
2022-11-30T06:15:39.994Z,17.05
2022-11-30T06:19:44.968Z,13.10
2022-11-30T06:23:47.967Z,16.15
2022-11-30T06:27:51.305Z,16.25
2022-11-30T06:31:55.074Z,19.00
2022-11-30T06:35:59.870Z,17.48
2022-11-30T06:40:07.560Z,13.98
2022-11-30T06:44:11.982Z,17.42
2022-11-30T06:48:15.889Z,17.42
2022-11-30T06:52:20.902Z,20.52
2022-11-30T06:56:24.450Z,16.20
2022-11-30T07:00:27.945Z,17.17
2022-11-30T07:04:31.487Z,16.70
2022-11-30T07:08:36.305Z,16.08
2022-11-30T07:12:39.707Z,16.95
2022-11-30T07:16:43.611Z,20.45
2022-11-30T07:20:46.955Z,17.38
2022-11-30T07:25:09.395Z,15.30
2022-11-30T07:29:13.056Z,17.80
2022-11-30T07:33:16.528Z,16.85
2022-11-30T07:37:19.954Z,19.70
2022-11-30T07:41:25.210Z,19.25
2022-11-30T07:45:28.779Z,19.13
2022-11-30T07:49:32.335Z,16.50
2022-11-30T07:53:35.890Z,18.60
2022-11-30T07:57:40.363Z,17.23
2022-11-30T08:01:44.139Z,16.85
2022-11-30T08:05:47.287Z,16.95
2022-11-30T08:09:50.864Z,19.05
2022-11-30T08:13:56.399Z,15.82
2022-11-30T08:18:07.605Z,14.73
2022-11-30T08:22:11.033Z,14.18
2022-11-30T08:26:16.559Z,14.20
2022-11-30T08:30:21.811Z,17.52
2022-11-30T08:34:27.472Z,16.55
2022-11-30T08:38:31.433Z,15.98
2022-11-30T08:42:34.694Z,14.82
2022-11-30T08:46:55.289Z,17.92
2022-11-30T08:51:02.791Z,15.18
2022-11-30T08:55:07.194Z,13.38
2022-11-30T08:59:10.310Z,13.90
2022-11-30T09:03:15.212Z,15.52
2022-11-30T09:07:19.035Z,17.27
2022-11-30T09:11:25.046Z,15.38
2022-11-30T09:15:28.560Z,13.35
2022-11-30T09:19:33.024Z,13.15
2022-11-30T09:23:37.348Z,12.25
2022-11-30T09:27:40.849Z,13.52
2022-11-30T09:31:44.348Z,13.90
2022-11-30T09:35:56.260Z,13.75
2022-11-30T09:39:59.771Z,12.53
2022-11-30T09:44:15.069Z,10.38
2022-11-30T09:48:42.933Z,11.40
2022-11-30T09:52:51.338Z,10.07
2022-11-30T09:56:54.847Z,12.60
2022-11-30T10:01:01.249Z,12.57
2022-11-30T10:05:14.353Z,16.60
2022-11-30T10:09:36.206Z,15.48
2022-11-30T10:13:54.716Z,15.20
2022-11-30T10:18:06.889Z,14.77
2022-11-30T10:22:21.971Z,17.40
2022-11-30T10:26:32.249Z,12.18
2022-11-30T10:30:38.031Z,14.10
2022-11-30T10:34:44.314Z,14.20
2022-11-30T10:38:51.366Z,15.02
2022-11-30T10:43:13.648Z,15.55
2022-11-30T10:47:23.127Z,15.73
2022-11-30T10:51:28.037Z,15.68
2022-11-30T10:55:37.040Z,15.15
2022-11-30T10:59:47.583Z,15.98
2022-11-30T11:03:50.860Z,16.70
2022-11-30T11:08:05.876Z,16.55
2022-11-30T11:12:19.581Z,17.38
2022-11-30T11:16:24.509Z,15.93
2022-11-30T11:20:34.786Z,17.30
2022-11-30T11:24:38.179Z,16.17
2022-11-30T11:28:46.754Z,15.90
2022-11-30T11:33:01.790Z,14.38
2022-11-30T11:37:09.561Z,14.98
2022-11-30T11:41:20.014Z,15.23
2022-11-30T11:45:26.617Z,16.90
2022-11-30T11:49:34.301Z,15.18
2022-11-30T11:53:53.556Z,15.25
2022-11-30T11:58:01.836Z,16.70
2022-11-30T12:02:14.969Z,14.85
2022-11-30T12:06:21.260Z,14.60
2022-11-30T12:14:56.539Z,15.18
2022-11-30T12:19:05.553Z,16.33
2022-11-30T12:27:53.379Z,14.57
2022-11-30T12:32:10.090Z,13.50
2022-11-30T12:36:20.762Z,15.68
2022-11-30T12:40:34.987Z,12.75
2022-11-30T12:44:59.895Z,15.55
2022-11-30T12:49:21.311Z,15.75
2022-11-30T12:53:30.593Z,14.15
2022-11-30T12:57:40.127Z,12.70
2022-11-30T13:01:59.273Z,15.15
2022-11-30T13:06:09.257Z,15.18
2022-11-30T13:18:25.010Z,14.88
2022-11-30T13:22:46.541Z,14.57
2022-11-30T13:26:56.908Z,14.70
2022-11-30T13:31:07.361Z,14.13
2022-11-30T13:35:54.812Z,12.98
2022-11-30T13:39:59.136Z,13.85
2022-11-30T13:44:02.485Z,14.27
2022-11-30T13:48:21.939Z,14.95
2022-11-30T13:52:58.117Z,16.33
2022-11-30T13:57:03.122Z,14.40
2022-11-30T14:01:28.956Z,15.02
2022-11-30T14:05:41.789Z,14.85
2022-11-30T14:14:40.628Z,13.95
2022-11-30T14:18:48.889Z,18.20
2022-11-30T14:22:54.021Z,17.50
2022-11-30T14:26:57.925Z,17.15
2022-11-30T14:31:01.882Z,18.20
2022-11-30T14:35:11.394Z,18.15
2022-11-30T14:39:29.295Z,16.98
2022-11-30T14:43:32.977Z,17.52
2022-11-30T14:47:37.279Z,16.65
2022-11-30T14:51:43.138Z,16.77
2022-11-30T14:55:53.017Z,18.05
2022-11-30T14:59:57.333Z,17.27
2022-11-30T15:04:07.299Z,18.80
2022-11-30T15:08:15.203Z,16.55
2022-11-30T15:12:21.996Z,15.95
2022-11-30T15:16:29.834Z,18.73
2022-11-30T15:20:39.765Z,17.58
2022-11-30T15:24:44.299Z,17.65
2022-11-30T15:28:55.592Z,18.88
2022-11-30T15:32:59.752Z,21.30
2022-11-30T15:37:03.808Z,20.88
2022-11-30T15:41:22.010Z,19.60
2022-11-30T15:45:27.367Z,18.55
2022-11-30T15:49:32.215Z,19.27
2022-11-30T15:53:37.093Z,19.17
2022-11-30T15:58:01.384Z,20.60
2022-11-30T16:02:09.174Z,17.70
2022-11-30T16:06:21.297Z,19.95
2022-11-30T16:10:26.700Z,19.85
2022-11-30T16:14:31.272Z,16.38
2022-11-30T16:18:35.666Z,17.15
2022-11-30T16:22:40.548Z,20.60
2022-11-30T16:26:51.017Z,20.25
2022-11-30T16:31:01.068Z,17.42
2022-11-30T16:35:04.431Z,18.85
2022-11-30T16:39:12.297Z,17.23
2022-11-30T16:43:15.889Z,18.02
2022-11-30T16:47:23.022Z,19.77
2022-11-30T16:51:28.582Z,18.33
2022-11-30T16:55:35.168Z,17.80
2022-11-30T16:59:38.491Z,17.52
2022-11-30T17:03:46.991Z,15.05
2022-11-30T17:07:51.536Z,17.67
2022-11-30T17:11:54.623Z,17.73
2022-11-30T17:15:58.026Z,21.13
2022-11-30T17:20:03.172Z,21.63
2022-11-30T17:24:07.734Z,18.77
2022-11-30T17:28:10.841Z,17.83
2022-11-30T17:32:13.914Z,21.38
2022-11-30T17:36:19.888Z,21.92
2022-11-30T17:40:23.483Z,19.45
2022-11-30T17:44:26.516Z,21.15
2022-11-30T17:48:32.398Z,18.48
2022-11-30T17:52:37.189Z,18.27
2022-11-30T17:56:41.436Z,17.08
2022-11-30T18:00:44.836Z,15.82
2022-11-30T18:04:48.180Z,17.10
2022-11-30T18:08:53.484Z,17.23
2022-11-30T18:12:57.175Z,15.48
2022-11-30T18:17:01.069Z,17.27
2022-11-30T18:21:05.845Z,19.50
2022-11-30T18:25:10.798Z,16.70
2022-11-30T18:29:15.625Z,16.15
2022-11-30T18:33:19.076Z,16.88
2022-11-30T18:37:22.545Z,16.88
2022-11-30T18:41:28.732Z,16.48
2022-11-30T18:45:34.154Z,15.48
2022-11-30T18:49:37.730Z,15.57
2022-11-30T18:53:41.558Z,14.90
2022-11-30T18:57:46.477Z,14.45
2022-11-30T19:01:51.174Z,12.90
2022-11-30T19:05:55.538Z,12.05
2022-11-30T19:09:58.629Z,12.43
2022-11-30T19:14:07.419Z,11.27
2022-11-30T19:18:13.173Z,11.90
2022-11-30T19:22:17.027Z,11.80
2022-11-30T19:26:20.218Z,9.88
2022-11-30T19:30:26.814Z,10.25
2022-11-30T19:34:30.298Z,10.52
2022-11-30T19:38:33.980Z,8.45
2022-11-30T19:42:37.080Z,10.23
2022-11-30T19:46:43.650Z,8.02
2022-11-30T19:50:47.058Z,8.52
2022-11-30T19:54:50.575Z,8.35
2022-11-30T19:58:55.129Z,8.18
2022-11-30T20:03:10.593Z,6.70
2022-11-30T20:12:30.761Z,6.80
2022-11-30T20:16:34.551Z,8.57
2022-11-30T20:20:39.532Z,8.68
2022-11-30T20:24:44.349Z,7.88
2022-11-30T20:28:47.454Z,9.13
2022-11-30T20:32:51.086Z,6.68
2022-11-30T20:36:55.918Z,7.63
2022-11-30T20:40:59.692Z,8.02
2022-11-30T20:45:02.819Z,8.18
2022-11-30T20:49:16.009Z,8.77
2022-11-30T20:53:21.352Z,7.63
2022-11-30T20:57:24.404Z,8.32
2022-11-30T21:01:27.774Z,6.30
2022-11-30T21:05:32.970Z,7.53
2022-11-30T21:09:37.974Z,8.30
2022-11-30T21:13:42.995Z,7.90
2022-11-30T21:17:46.099Z,10.20
2022-11-30T21:21:49.193Z,10.35
2022-11-30T21:25:55.204Z,9.73
2022-11-30T21:29:58.267Z,10.98
2022-11-30T21:34:01.992Z,10.35
2022-11-30T21:38:05.483Z,8.35
2022-11-30T21:42:10.440Z,9.52
2022-11-30T21:46:15.674Z,9.55
2022-11-30T21:50:24.329Z,9.23
2022-11-30T21:54:30.748Z,8.32
2022-11-30T21:58:36.270Z,10.05
2022-11-30T22:02:39.567Z,9.30
2022-11-30T22:06:43.508Z,8.20
2022-11-30T22:10:46.921Z,8.70
2022-11-30T22:14:52.013Z,7.97
2022-11-30T22:18:56.452Z,7.60
2022-11-30T22:23:00.075Z,9.63
2022-11-30T22:27:03.650Z,8.75
2022-11-30T22:31:11.978Z,7.93
2022-11-30T22:35:15.252Z,8.30
2022-11-30T22:39:20.768Z,6.88
2022-11-30T22:43:24.287Z,9.00
2022-11-30T22:47:28.858Z,9.32
2022-11-30T22:51:34.361Z,9.05
2022-11-30T22:55:38.013Z,7.70
2022-11-30T22:59:41.267Z,9.48
2022-11-30T23:03:47.601Z,9.48
2022-11-30T23:07:51.217Z,8.23
2022-11-30T23:11:54.775Z,8.77
2022-11-30T23:15:59.991Z,9.73
2022-11-30T23:20:05.634Z,8.05
2022-11-30T23:24:17.014Z,9.52
2022-11-30T23:28:20.340Z,10.45
2022-11-30T23:32:23.764Z,10.07
2022-11-30T23:36:28.823Z,8.75
2022-11-30T23:40:32.328Z,10.55
2022-11-30T23:44:35.851Z,10.98
2022-11-30T23:48:39.449Z,11.60
2022-11-30T23:52:44.292Z,11.82
2022-11-30T23:56:47.754Z,11.48
